Time;durP1;ratioP1;P1;durP2;ratioP2;P2;SDS_P1;SDS_P2;PMS_P1;PMS_P2;Temp;Humidity;BMP_temperature;BMP_pressure;BME280_temperature;BME280_humidity;BME280_pressure;Samples;Min_cycle;Max_cycle;Signal;HPM_P1;HPM_P2
2022/06/11 00:01:24;;;;;;;3.27;2.33;;;;;;;;;;4973786;28;20401;-56
2022/06/11 00:03:53;;;;;;;2.83;2.10;;;;;;;;;;4973643;28;20284;-53
2022/06/11 00:06:20;;;;;;;3.43;2.23;;;;;;;;;;4973004;28;20305;-53
2022/06/11 00:08:46;;;;;;;3.40;2.37;;;;;;;;;;4973655;28;20249;-55
2022/06/11 00:11:12;;;;;;;2.93;1.93;;;;;;;;;;4974062;28;20259;-55
2022/06/11 00:13:38;;;;;;;4.00;2.07;;;;;;;;;;4973955;28;20608;-54
2022/06/11 00:16:05;;;;;;;4.97;2.30;;;;;;;;;;4973364;28;20360;-53
2022/06/11 00:18:31;;;;;;;4.50;2.17;;;;;;;;;;4973762;28;20253;-54
2022/06/11 00:20:59;;;;;;;4.73;2.37;;;;;;;;;;4973253;28;20646;-54
2022/06/11 00:23:26;;;;;;;3.03;2.20;;;;;;;;;;4973649;28;20212;-54
2022/06/11 00:25:52;;;;;;;4.83;2.20;;;;;;;;;;4973481;28;20221;-54
2022/06/11 00:28:19;;;;;;;3.67;2.13;;;;;;;;;;4973315;28;20200;-54
2022/06/11 00:30:45;;;;;;;3.43;2.27;;;;;;;;;;4973518;28;20211;-55
2022/06/11 00:33:11;;;;;;;3.53;1.80;;;;;;;;;;4973453;28;20229;-55
2022/06/11 00:35:38;;;;;;;3.77;2.30;;;;;;;;;;4973239;28;20228;-54
2022/06/11 00:38:06;;;;;;;5.10;2.20;;;;;;;;;;4973241;28;20486;-54
2022/06/11 00:40:34;;;;;;;3.27;2.10;;;;;;;;;;4973194;28;20197;-55
2022/06/11 00:43:00;;;;;;;2.73;1.87;;;;;;;;;;4973085;28;20272;-55
2022/06/11 00:45:29;;;;;;;5.63;2.53;;;;;;;;;;4973325;28;20301;-54
2022/06/11 00:47:57;;;;;;;4.63;2.43;;;;;;;;;;4972848;28;20629;-55
2022/06/11 00:50:25;;;;;;;6.10;2.30;;;;;;;;;;4973038;28;20298;-54
2022/06/11 00:52:51;;;;;;;2.50;2.10;;;;;;;;;;4973041;28;20720;-55
2022/06/11 00:55:21;;;;;;;3.30;2.30;;;;;;;;;;4972883;28;20264;-54
2022/06/11 00:57:48;;;;;;;3.33;2.07;;;;;;;;;;4972902;28;20253;-54
2022/06/11 01:00:18;;;;;;;3.77;1.93;;;;;;;;;;4973043;28;20259;-55
2022/06/11 01:02:44;;;;;;;6.07;2.27;;;;;;;;;;4972930;28;20209;-55
2022/06/11 01:05:13;;;;;;;4.23;2.27;;;;;;;;;;4972769;28;20207;-54
2022/06/11 01:07:52;;;;;;;4.03;2.30;;;;;;;;;;4972737;28;20216;-55
2022/06/11 01:10:28;;;;;;;3.63;2.57;;;;;;;;;;4972882;28;20228;-54
2022/06/11 01:12:59;;;;;;;4.03;2.20;;;;;;;;;;4972807;28;20220;-54
2022/06/11 01:15:28;;;;;;;3.33;2.43;;;;;;;;;;4972676;28;20228;-54
2022/06/11 01:18:01;;;;;;;2.53;2.10;;;;;;;;;;4972484;28;20206;-54
2022/06/11 01:20:31;;;;;;;5.23;2.50;;;;;;;;;;4972697;28;20225;-54
2022/06/11 01:23:07;;;;;;;6.87;2.23;;;;;;;;;;4972323;28;20236;-54
2022/06/11 01:25:38;;;;;;;4.07;2.57;;;;;;;;;;4972641;28;20211;-55
2022/06/11 01:28:17;;;;;;;3.90;2.20;;;;;;;;;;4972140;28;20614;-54
2022/06/11 01:30:48;;;;;;;4.20;2.23;;;;;;;;;;4972733;28;20209;-54
2022/06/11 01:33:18;;;;;;;4.43;2.27;;;;;;;;;;4972489;28;20201;-54
2022/06/11 01:35:55;;;;;;;6.77;2.40;;;;;;;;;;4972564;28;20234;-55
2022/06/11 01:38:24;;;;;;;3.80;2.10;;;;;;;;;;4975051;28;20205;-54
2022/06/11 01:40:52;;;;;;;4.37;2.40;;;;;;;;;;4978667;28;20203;-54
2022/06/11 01:43:20;;;;;;;4.70;2.50;;;;;;;;;;4978879;28;20590;-54
2022/06/11 01:45:48;;;;;;;3.67;2.20;;;;;;;;;;4978907;28;20203;-54
2022/06/11 01:48:16;;;;;;;3.33;2.30;;;;;;;;;;4978710;28;20217;-54
2022/06/11 01:50:43;;;;;;;3.70;2.47;;;;;;;;;;4978733;28;20679;-54
2022/06/11 01:53:18;;;;;;;3.23;2.33;;;;;;;;;;4978844;28;20208;-54
2022/06/11 01:55:50;;;;;;;2.30;1.90;;;;;;;;;;4978829;28;20225;-54
2022/06/11 01:58:25;;;;;;;5.33;2.43;;;;;;;;;;4978807;28;20295;-54
2022/06/11 02:00:56;;;;;;;5.57;2.93;;;;;;;;;;4978817;28;20213;-54
2022/06/11 02:03:26;;;;;;;4.00;2.70;;;;;;;;;;4978860;28;20264;-54
2022/06/11 02:06:05;;;;;;;4.90;2.37;;;;;;;;;;4978580;28;20201;-54
2022/06/11 02:08:39;;;;;;;3.47;2.40;;;;;;;;;;4978690;28;20214;-54
2022/06/11 02:11:08;;;;;;;2.90;2.17;;;;;;;;;;4978667;28;20206;-54
2022/06/11 02:13:36;;;;;;;3.67;2.33;;;;;;;;;;4978499;28;20216;-54
2022/06/11 02:16:07;;;;;;;3.37;2.20;;;;;;;;;;4978369;28;20664;-54
2022/06/11 02:18:34;;;;;;;4.67;2.43;;;;;;;;;;4978479;28;20198;-54
2022/06/11 02:21:02;;;;;;;3.33;2.30;;;;;;;;;;4978468;28;20215;-54
2022/06/11 02:23:29;;;;;;;4.53;2.00;;;;;;;;;;4978369;28;20208;-54
2022/06/11 02:25:57;;;;;;;4.83;2.20;;;;;;;;;;4978428;28;20255;-54
2022/06/11 02:28:25;;;;;;;3.10;2.30;;;;;;;;;;4978228;28;20247;-54
2022/06/11 02:30:52;;;;;;;3.30;2.13;;;;;;;;;;4978805;28;20207;-53
2022/06/11 02:33:20;;;;;;;3.27;2.40;;;;;;;;;;4978143;28;20221;-53
2022/06/11 02:35:57;;;;;;;4.43;2.40;;;;;;;;;;4978076;28;20241;-53
2022/06/11 02:38:24;;;;;;;3.27;2.20;;;;;;;;;;4978153;28;20214;-54
2022/06/11 02:40:51;;;;;;;3.37;2.30;;;;;;;;;;4978138;28;20205;-53
2022/06/11 02:43:17;;;;;;;3.47;2.20;;;;;;;;;;4977039;28;20197;-54
2022/06/11 02:45:44;;;;;;;4.93;2.40;;;;;;;;;;4978105;28;20196;-54
2022/06/11 02:48:11;;;;;;;4.00;2.47;;;;;;;;;;4978295;28;20236;-53
2022/06/11 02:50:38;;;;;;;2.90;2.30;;;;;;;;;;4974790;28;20209;-53
2022/06/11 02:53:05;;;;;;;3.30;2.17;;;;;;;;;;4975105;28;20623;-54
2022/06/11 02:55:32;;;;;;;3.77;2.30;;;;;;;;;;4975435;28;20229;-53
2022/06/11 02:57:58;;;;;;;4.83;2.60;;;;;;;;;;4974902;28;20310;-54
2022/06/11 03:00:25;;;;;;;2.80;2.43;;;;;;;;;;4975163;28;20199;-54
2022/06/11 03:02:51;;;;;;;2.57;2.20;;;;;;;;;;4975194;28;20597;-54
2022/06/11 03:05:18;;;;;;;2.90;2.20;;;;;;;;;;4975044;28;20692;-54
2022/06/11 03:07:46;;;;;;;4.07;2.30;;;;;;;;;;4975058;28;20219;-55
2022/06/11 03:10:13;;;;;;;6.13;2.53;;;;;;;;;;4974974;28;20207;-53
2022/06/11 03:12:39;;;;;;;3.97;2.37;;;;;;;;;;4974832;28;20224;-53
2022/06/11 03:15:06;;;;;;;4.70;2.40;;;;;;;;;;4974993;28;20263;-54
2022/06/11 03:17:32;;;;;;;4.23;2.47;;;;;;;;;;4974849;28;20207;-54
2022/06/11 03:19:58;;;;;;;3.43;2.20;;;;;;;;;;4974618;28;20250;-54
2022/06/11 03:22:24;;;;;;;3.53;2.20;;;;;;;;;;4974638;28;20612;-55
2022/06/11 03:24:52;;;;;;;2.20;2.00;;;;;;;;;;4974612;28;20243;-55
2022/06/11 03:27:18;;;;;;;4.10;2.37;;;;;;;;;;4974474;28;20234;-54
2022/06/11 03:29:44;;;;;;;3.63;2.37;;;;;;;;;;4974569;28;20231;-55
2022/06/11 03:32:10;;;;;;;4.57;2.63;;;;;;;;;;4974383;28;20206;-54
2022/06/11 03:34:36;;;;;;;3.97;2.20;;;;;;;;;;4974746;28;20234;-54
2022/06/11 03:37:02;;;;;;;3.60;2.07;;;;;;;;;;4973968;28;20694;-53
2022/06/11 03:39:28;;;;;;;4.97;2.50;;;;;;;;;;4974543;28;20291;-54
2022/06/11 03:41:56;;;;;;;5.23;2.23;;;;;;;;;;4974391;28;20204;-54
2022/06/11 03:44:23;;;;;;;2.87;1.87;;;;;;;;;;4973988;28;20655;-53
2022/06/11 03:46:49;;;;;;;3.80;2.37;;;;;;;;;;4974291;28;20208;-55
2022/06/11 03:49:15;;;;;;;2.87;2.10;;;;;;;;;;4974220;28;20294;-54
2022/06/11 03:51:41;;;;;;;4.53;2.20;;;;;;;;;;4974199;28;20208;-54
2022/06/11 03:54:07;;;;;;;4.93;2.30;;;;;;;;;;4974158;28;20295;-54
2022/06/11 03:56:34;;;;;;;2.90;2.30;;;;;;;;;;4973958;28;20718;-54
2022/06/11 03:59:01;;;;;;;3.37;1.97;;;;;;;;;;4973993;28;20291;-55
2022/06/11 04:01:28;;;;;;;4.53;2.10;;;;;;;;;;4973869;28;20259;-54
2022/06/11 04:03:56;;;;;;;3.83;2.10;;;;;;;;;;4973894;28;20201;-54
2022/06/11 04:06:23;;;;;;;3.83;2.00;;;;;;;;;;4973831;28;20192;-54
2022/06/11 04:08:49;;;;;;;4.03;2.37;;;;;;;;;;4973819;28;20255;-54
2022/06/11 04:11:15;;;;;;;4.50;2.40;;;;;;;;;;4973826;28;20267;-54
2022/06/11 04:13:42;;;;;;;5.33;2.30;;;;;;;;;;4973564;28;20647;-54
2022/06/11 04:16:16;;;;;;;5.83;2.50;;;;;;;;;;4973467;28;20236;-54
2022/06/11 04:18:48;;;;;;;6.43;2.73;;;;;;;;;;4973682;28;20208;-54
2022/06/11 04:21:14;;;;;;;5.17;2.50;;;;;;;;;;4973577;28;20568;-54
2022/06/11 04:23:42;;;;;;;3.73;2.57;;;;;;;;;;4973624;28;20560;-54
2022/06/11 04:26:10;;;;;;;4.57;2.30;;;;;;;;;;4973496;28;20213;-54
2022/06/11 04:28:36;;;;;;;3.33;2.23;;;;;;;;;;4973213;28;20239;-54
2022/06/11 04:31:04;;;;;;;4.07;2.20;;;;;;;;;;4973487;28;20205;-54
2022/06/11 04:33:31;;;;;;;5.87;2.37;;;;;;;;;;4973659;28;20208;-54
2022/06/11 04:35:57;;;;;;;4.40;2.50;;;;;;;;;;4973136;28;20326;-55
2022/06/11 04:38:24;;;;;;;4.27;2.50;;;;;;;;;;4973321;28;20666;-55
2022/06/11 04:40:50;;;;;;;5.27;2.50;;;;;;;;;;4973540;28;20193;-55
2022/06/11 04:43:16;;;;;;;8.37;2.80;;;;;;;;;;4973001;28;20280;-55
2022/06/11 04:45:42;;;;;;;3.80;2.20;;;;;;;;;;4973293;28;20640;-55
2022/06/11 04:48:08;;;;;;;8.50;2.70;;;;;;;;;;4973029;28;20248;-54
2022/06/11 04:50:36;;;;;;;4.43;2.63;;;;;;;;;;4973138;28;20727;-53
2022/06/11 04:53:02;;;;;;;3.80;2.50;;;;;;;;;;4973035;28;20653;-54
2022/06/11 04:55:28;;;;;;;4.50;2.50;;;;;;;;;;4973089;28;20613;-54
2022/06/11 04:57:54;;;;;;;4.07;2.40;;;;;;;;;;4973470;28;20617;-54
2022/06/11 05:00:22;;;;;;;8.60;3.30;;;;;;;;;;4972814;28;20213;-54
2022/06/11 05:02:49;;;;;;;5.73;3.00;;;;;;;;;;4972853;28;20622;-53
2022/06/11 05:05:15;;;;;;;6.93;2.70;;;;;;;;;;4972927;28;20194;-54
2022/06/11 05:07:43;;;;;;;4.93;2.80;;;;;;;;;;4972876;28;20596;-54
2022/06/11 05:10:10;;;;;;;5.47;2.93;;;;;;;;;;4972712;28;20699;-53
2022/06/11 05:12:36;;;;;;;5.60;3.00;;;;;;;;;;4972334;28;20207;-54
2022/06/11 05:15:02;;;;;;;3.80;2.60;;;;;;;;;;4972338;28;20265;-54
2022/06/11 05:17:28;;;;;;;3.60;2.70;;;;;;;;;;4972883;28;20228;-53
2022/06/11 05:19:54;;;;;;;5.37;3.20;;;;;;;;;;4972551;28;20816;-54
2022/06/11 05:22:20;;;;;;;4.60;2.53;;;;;;;;;;4972497;28;20214;-54
2022/06/11 05:24:48;;;;;;;6.67;2.90;;;;;;;;;;4972697;28;20203;-54
2022/06/11 05:27:15;;;;;;;5.37;2.77;;;;;;;;;;4972279;28;20726;-55
2022/06/11 05:29:47;;;;;;;6.50;2.93;;;;;;;;;;4972243;28;20719;-54
2022/06/11 05:32:14;;;;;;;4.87;2.93;;;;;;;;;;4972482;28;20206;-54
2022/06/11 05:34:41;;;;;;;6.60;2.70;;;;;;;;;;4972567;28;20253;-54
2022/06/11 05:37:07;;;;;;;4.03;2.93;;;;;;;;;;4972273;28;20198;-55
2022/06/11 05:39:33;;;;;;;6.73;3.10;;;;;;;;;;4972833;28;20205;-54
2022/06/11 05:42:00;;;;;;;7.50;2.80;;;;;;;;;;4972283;28;20206;-54
2022/06/11 05:44:26;;;;;;;5.77;3.50;;;;;;;;;;4972259;28;20643;-54
2022/06/11 05:46:53;;;;;;;6.80;3.47;;;;;;;;;;4972513;28;20239;-54
2022/06/11 05:49:21;;;;;;;9.17;3.40;;;;;;;;;;4972299;28;20203;-54
2022/06/11 05:51:49;;;;;;;7.23;3.37;;;;;;;;;;4972402;28;20697;-54
2022/06/11 05:54:18;;;;;;;6.87;3.87;;;;;;;;;;4972428;28;20669;-55
2022/06/11 05:56:44;;;;;;;5.10;3.73;;;;;;;;;;4972331;28;20294;-54
2022/06/11 05:59:14;;;;;;;9.23;4.53;;;;;;;;;;4972377;28;20241;-54
2022/06/11 06:01:41;;;;;;;6.33;4.10;;;;;;;;;;4972392;28;20306;-54
2022/06/11 06:04:08;;;;;;;7.07;4.90;;;;;;;;;;4972069;28;20253;-54
2022/06/11 06:06:34;;;;;;;6.97;4.97;;;;;;;;;;4972141;28;20194;-55
2022/06/11 06:09:00;;;;;;;11.67;5.50;;;;;;;;;;4972349;28;20198;-54
2022/06/11 06:11:26;;;;;;;8.20;4.90;;;;;;;;;;4972043;28;20740;-54
2022/06/11 06:13:52;;;;;;;4.97;4.10;;;;;;;;;;4972235;28;20203;-54
2022/06/11 06:16:22;;;;;;;4.97;4.20;;;;;;;;;;4971524;28;20258;-55
2022/06/11 06:18:48;;;;;;;6.40;3.30;;;;;;;;;;4972151;28;20213;-54
2022/06/11 06:21:15;;;;;;;6.90;3.10;;;;;;;;;;4971873;28;20199;-54
2022/06/11 06:23:41;;;;;;;4.13;2.40;;;;;;;;;;4972029;28;20293;-54
2022/06/11 06:26:07;;;;;;;4.63;2.50;;;;;;;;;;4975050;28;20210;-55
2022/06/11 06:28:34;;;;;;;4.03;2.10;;;;;;;;;;4975562;28;20247;-55
2022/06/11 06:31:01;;;;;;;5.23;2.60;;;;;;;;;;4975571;28;20258;-55
2022/06/11 06:33:30;;;;;;;4.87;2.70;;;;;;;;;;4974861;28;20269;-54
2022/06/11 06:35:56;;;;;;;4.47;2.53;;;;;;;;;;4975391;28;20309;-54
2022/06/11 06:38:22;;;;;;;3.83;2.20;;;;;;;;;;4975377;28;20206;-54
2022/06/11 06:40:48;;;;;;;3.53;2.43;;;;;;;;;;4975500;28;20199;-54
2022/06/11 06:43:15;;;;;;;4.60;2.57;;;;;;;;;;4975381;28;20283;-54
2022/06/11 06:45:41;;;;;;;3.97;2.23;;;;;;;;;;4975052;28;20186;-55
2022/06/11 06:48:07;;;;;;;4.87;2.17;;;;;;;;;;4975142;28;20196;-54
2022/06/11 06:50:36;;;;;;;4.73;2.20;;;;;;;;;;4975307;28;20199;-54
2022/06/11 06:53:02;;;;;;;5.53;2.33;;;;;;;;;;4975099;28;20729;-54
2022/06/11 06:55:28;;;;;;;4.73;2.30;;;;;;;;;;4975047;28;20262;-54
2022/06/11 06:57:54;;;;;;;2.40;2.10;;;;;;;;;;4975044;28;20202;-54
2022/06/11 07:00:22;;;;;;;7.50;2.30;;;;;;;;;;4975122;28;20592;-54
2022/06/11 07:02:49;;;;;;;5.63;2.87;;;;;;;;;;4975474;28;20294;-54
2022/06/11 07:05:16;;;;;;;4.57;2.47;;;;;;;;;;4974925;28;20430;-55
2022/06/11 07:07:46;;;;;;;7.13;2.47;;;;;;;;;;4975086;28;20623;-55
2022/06/11 07:10:12;;;;;;;8.93;2.23;;;;;;;;;;4974959;28;20215;-54
2022/06/11 07:12:38;;;;;;;4.90;2.30;;;;;;;;;;4974803;28;20266;-55
2022/06/11 07:15:04;;;;;;;4.83;2.40;;;;;;;;;;4974899;28;20222;-55
2022/06/11 07:17:34;;;;;;;3.13;2.07;;;;;;;;;;4974791;28;20282;-54
2022/06/11 07:20:02;;;;;;;4.20;2.20;;;;;;;;;;4974730;28;20202;-54
2022/06/11 07:22:32;;;;;;;1.90;1.60;;;;;;;;;;4974614;28;20555;-55
2022/06/11 07:25:00;;;;;;;2.93;2.10;;;;;;;;;;4974709;28;20206;-54
2022/06/11 07:27:28;;;;;;;4.97;2.00;;;;;;;;;;4974425;28;20212;-54
2022/06/11 07:29:56;;;;;;;5.60;2.13;;;;;;;;;;4974377;28;20238;-54
2022/06/11 07:32:24;;;;;;;1.97;1.40;;;;;;;;;;4974477;28;20629;-53
2022/06/11 07:34:50;;;;;;;3.00;1.37;;;;;;;;;;4974587;28;20267;-54
2022/06/11 07:37:17;;;;;;;3.10;1.40;;;;;;;;;;4973572;28;20203;-54
2022/06/11 07:39:43;;;;;;;3.53;1.90;;;;;;;;;;4974695;28;20225;-54
2022/06/11 07:42:11;;;;;;;3.70;1.67;;;;;;;;;;4974284;28;20243;-53
2022/06/11 07:44:38;;;;;;;2.67;1.60;;;;;;;;;;4974195;28;20274;-55
2022/06/11 07:47:04;;;;;;;4.63;1.90;;;;;;;;;;4974387;28;20202;-55
2022/06/11 07:49:30;;;;;;;2.33;1.50;;;;;;;;;;4974311;28;20302;-55
2022/06/11 07:51:56;;;;;;;3.07;2.07;;;;;;;;;;4974047;28;20224;-54
2022/06/11 07:54:22;;;;;;;2.40;1.60;;;;;;;;;;4974381;28;20200;-54
2022/06/11 07:56:48;;;;;;;2.30;1.40;;;;;;;;;;4970822;28;20687;-55
2022/06/11 07:59:16;;;;;;;4.23;1.70;;;;;;;;;;4973852;28;20203;-54
2022/06/11 08:01:42;;;;;;;2.93;1.63;;;;;;;;;;4973881;28;20252;-54
2022/06/11 08:04:08;;;;;;;3.53;1.63;;;;;;;;;;4974339;28;20212;-54
2022/06/11 08:06:34;;;;;;;2.83;1.57;;;;;;;;;;4973736;28;20281;-54
2022/06/11 08:09:01;;;;;;;3.73;1.60;;;;;;;;;;4973622;28;20637;-54
2022/06/11 08:11:27;;;;;;;3.33;1.80;;;;;;;;;;4973699;28;20739;-54
2022/06/11 08:13:53;;;;;;;2.43;1.73;;;;;;;;;;4973596;28;20201;-54
2022/06/11 08:16:20;;;;;;;3.63;1.33;;;;;;;;;;4973362;28;20268;-55
2022/06/11 08:18:46;;;;;;;4.43;1.63;;;;;;;;;;4973756;28;20202;-55
2022/06/11 08:21:12;;;;;;;2.13;1.10;;;;;;;;;;4973214;28;20706;-55
2022/06/11 08:23:40;;;;;;;2.30;1.40;;;;;;;;;;4973618;28;20216;-55
2022/06/11 08:26:08;;;;;;;2.97;1.50;;;;;;;;;;4973524;28;20229;-55
2022/06/11 08:28:34;;;;;;;3.33;1.60;;;;;;;;;;4972855;28;20237;-54
2022/06/11 08:31:04;;;;;;;2.50;1.30;;;;;;;;;;4973389;28;20205;-55
2022/06/11 08:33:32;;;;;;;3.37;1.43;;;;;;;;;;4973230;28;20229;-55
2022/06/11 08:35:58;;;;;;;2.27;1.30;;;;;;;;;;4972828;28;20713;-55
2022/06/11 08:38:24;;;;;;;1.93;1.40;;;;;;;;;;4973009;28;20202;-55
2022/06/11 08:40:53;;;;;;;2.40;1.40;;;;;;;;;;4973229;28;20214;-55
2022/06/11 08:43:22;;;;;;;2.90;1.57;;;;;;;;;;4972803;28;20210;-55
2022/06/11 08:45:49;;;;;;;4.30;1.80;;;;;;;;;;4972646;28;20719;-53
2022/06/11 08:48:19;;;;;;;1.77;1.30;;;;;;;;;;4971941;28;20210;-53
2022/06/11 08:50:52;;;;;;;3.70;1.60;;;;;;;;;;4972579;28;20253;-53
2022/06/11 08:53:20;;;;;;;2.40;1.40;;;;;;;;;;4973310;28;20206;-54
2022/06/11 08:55:46;;;;;;;3.13;1.70;;;;;;;;;;4972746;28;20517;-54
2022/06/11 08:58:18;;;;;;;4.80;1.70;;;;;;;;;;4971381;28;20547;-54
2022/06/11 09:00:48;;;;;;;3.50;1.73;;;;;;;;;;4971959;28;20203;-54
2022/06/11 09:03:18;;;;;;;2.90;1.20;;;;;;;;;;4972858;28;20199;-54
2022/06/11 09:05:55;;;;;;;3.37;1.87;;;;;;;;;;4972520;28;20191;-56
2022/06/11 09:08:29;;;;;;;3.17;1.57;;;;;;;;;;4972721;28;20210;-54
2022/06/11 09:11:05;;;;;;;2.87;1.40;;;;;;;;;;4972858;28;20198;-54
2022/06/11 09:13:41;;;;;;;2.53;1.40;;;;;;;;;;4972436;28;20212;-54
2022/06/11 09:16:13;;;;;;;3.47;1.60;;;;;;;;;;4972286;28;20252;-54
2022/06/11 09:18:57;;;;;;;2.70;1.23;;;;;;;;;;4971894;28;20241;-56
2022/06/11 09:21:29;;;;;;;1.70;1.23;;;;;;;;;;4971884;28;20215;-56
2022/06/11 09:24:02;;;;;;;2.20;1.47;;;;;;;;;;4972473;28;20202;-53
2022/06/11 09:26:36;;;;;;;3.50;1.50;;;;;;;;;;4972865;28;20224;-53
2022/06/11 09:29:07;;;;;;;4.97;1.67;;;;;;;;;;4972641;28;20723;-56
2022/06/11 09:31:38;;;;;;;2.60;1.50;;;;;;;;;;4972658;28;20266;-56
2022/06/11 09:34:09;;;;;;;2.70;1.50;;;;;;;;;;4972521;28;20728;-56
2022/06/11 09:36:38;;;;;;;2.67;1.40;;;;;;;;;;4972468;28;20227;-53
2022/06/11 09:39:08;;;;;;;2.50;1.43;;;;;;;;;;4972630;28;20243;-56
2022/06/11 09:41:40;;;;;;;3.70;1.90;;;;;;;;;;4972691;28;20554;-54
2022/06/11 09:44:17;;;;;;;3.10;1.60;;;;;;;;;;4972884;28;20203;-53
2022/06/11 09:46:45;;;;;;;2.90;1.37;;;;;;;;;;4972429;28;20203;-54
2022/06/11 09:49:25;;;;;;;4.50;1.57;;;;;;;;;;4972606;28;20254;-54
2022/06/11 09:51:57;;;;;;;5.37;1.67;;;;;;;;;;4972290;28;20675;-54
2022/06/11 09:54:41;;;;;;;2.03;1.20;;;;;;;;;;4972394;28;20223;-54
2022/06/11 09:57:20;;;;;;;1.77;1.30;;;;;;;;;;4959593;28;20218;-56
2022/06/11 09:59:47;;;;;;;3.07;1.40;;;;;;;;;;4974117;28;20227;-54
2022/06/11 10:02:21;;;;;;;3.43;1.60;;;;;;;;;;4976519;28;20221;-56
2022/06/11 10:04:48;;;;;;;3.00;1.50;;;;;;;;;;4976479;28;20211;-54
2022/06/11 10:07:19;;;;;;;3.00;1.43;;;;;;;;;;4976369;28;20202;-54
2022/06/11 10:09:46;;;;;;;1.83;1.03;;;;;;;;;;4976264;28;20273;-54
2022/06/11 10:12:16;;;;;;;3.13;1.40;;;;;;;;;;4976250;28;20205;-55
2022/06/11 10:14:45;;;;;;;3.80;1.50;;;;;;;;;;4976151;28;20210;-55
2022/06/11 10:17:13;;;;;;;2.60;1.27;;;;;;;;;;4976375;28;20206;-54
2022/06/11 10:19:42;;;;;;;2.47;1.27;;;;;;;;;;4976178;28;20206;-55
2022/06/11 10:22:13;;;;;;;1.97;1.30;;;;;;;;;;4976117;28;20697;-55
2022/06/11 10:24:42;;;;;;;4.73;1.73;;;;;;;;;;4976200;28;20672;-54
2022/06/11 10:27:10;;;;;;;4.10;1.50;;;;;;;;;;4976058;28;20566;-55
2022/06/11 10:29:39;;;;;;;4.30;1.47;;;;;;;;;;4975716;28;20285;-58
2022/06/11 10:32:07;;;;;;;3.77;1.30;;;;;;;;;;4974645;28;20195;-56
2022/06/11 10:34:37;;;;;;;2.17;1.23;;;;;;;;;;4975756;28;20213;-55
2022/06/11 10:37:07;;;;;;;2.07;1.37;;;;;;;;;;4975971;28;20311;-56
2022/06/11 10:39:36;;;;;;;4.10;1.50;;;;;;;;;;4975965;28;20202;-56
2022/06/11 10:42:07;;;;;;;2.30;1.30;;;;;;;;;;4975733;28;20200;-56
2022/06/11 10:44:38;;;;;;;3.13;1.60;;;;;;;;;;4975567;28;20210;-56
2022/06/11 10:47:13;;;;;;;4.80;1.80;;;;;;;;;;4975463;28;20633;-56
2022/06/11 10:49:39;;;;;;;2.63;1.50;;;;;;;;;;4975555;28;20199;-56
2022/06/11 10:52:10;;;;;;;2.57;1.30;;;;;;;;;;4975659;28;20263;-56
2022/06/11 10:54:36;;;;;;;2.43;1.20;;;;;;;;;;4975513;28;20733;-56
2022/06/11 10:57:06;;;;;;;2.17;1.43;;;;;;;;;;4975222;28;20314;-56
2022/06/11 10:59:36;;;;;;;2.67;1.43;;;;;;;;;;4975093;28;20218;-56
2022/06/11 11:02:09;;;;;;;2.83;1.30;;;;;;;;;;4975438;28;20206;-56
2022/06/11 11:04:39;;;;;;;2.20;1.30;;;;;;;;;;4975232;28;20199;-56
2022/06/11 11:07:10;;;;;;;6.33;1.67;;;;;;;;;;4975032;28;20206;-56
2022/06/11 11:09:36;;;;;;;3.77;1.53;;;;;;;;;;4973415;28;20247;-56
2022/06/11 11:12:06;;;;;;;2.20;1.27;;;;;;;;;;4971673;28;20341;-56
2022/06/11 11:14:39;;;;;;;3.50;1.80;;;;;;;;;;4970554;28;20614;-56
2022/06/11 11:17:07;;;;;;;4.20;1.60;;;;;;;;;;4970777;28;20803;-56
2022/06/11 11:19:34;;;;;;;6.97;1.60;;;;;;;;;;4972701;28;20258;-56
2022/06/11 11:22:09;;;;;;;3.77;1.70;;;;;;;;;;4973025;28;20285;-56
2022/06/11 11:24:36;;;;;;;4.43;1.60;;;;;;;;;;4973512;28;20205;-56
2022/06/11 11:27:05;;;;;;;2.50;1.50;;;;;;;;;;4973268;28;20321;-56
2022/06/11 11:29:32;;;;;;;3.50;1.27;;;;;;;;;;4973236;28;20263;-56
2022/06/11 11:32:06;;;;;;;6.67;1.73;;;;;;;;;;4973884;28;20239;-55
2022/06/11 11:34:33;;;;;;;4.43;1.63;;;;;;;;;;4974819;28;20208;-56
2022/06/11 11:37:20;;;;;;;3.73;1.43;;;;;;;;;;4974644;28;20231;-55
2022/06/11 11:39:49;;;;;;;3.07;1.47;;;;;;;;;;4969514;28;20769;-54
2022/06/11 11:42:18;;;;;;;3.07;1.70;;;;;;;;;;4972572;28;20207;-53
2022/06/11 11:44:51;;;;;;;4.70;1.60;;;;;;;;;;4974550;28;20204;-54
2022/06/11 11:47:20;;;;;;;3.07;1.53;;;;;;;;;;4974512;28;20272;-54
2022/06/11 11:49:51;;;;;;;3.63;1.60;;;;;;;;;;4974023;28;20211;-55
2022/06/11 11:52:19;;;;;;;4.40;1.50;;;;;;;;;;4972243;28;20241;-54
2022/06/11 11:54:49;;;;;;;3.60;1.57;;;;;;;;;;4972156;28;20201;-55
2022/06/11 11:57:16;;;;;;;3.13;1.67;;;;;;;;;;4973966;28;20603;-54
2022/06/11 11:59:45;;;;;;;7.70;1.40;;;;;;;;;;4974293;28;20691;-54
2022/06/11 12:02:15;;;;;;;3.23;1.57;;;;;;;;;;4974304;28;20295;-54
2022/06/11 12:04:49;;;;;;;7.90;1.90;;;;;;;;;;4974244;28;20208;-55
2022/06/11 12:07:16;;;;;;;4.93;1.80;;;;;;;;;;4974243;28;20200;-55
2022/06/11 12:09:48;;;;;;;3.83;1.40;;;;;;;;;;4974148;28;20196;-55
2022/06/11 12:12:17;;;;;;;3.00;1.57;;;;;;;;;;4974111;28;20201;-55
2022/06/11 12:14:47;;;;;;;5.97;1.80;;;;;;;;;;4973923;28;20213;-55
2022/06/11 12:17:17;;;;;;;5.43;1.70;;;;;;;;;;4973615;28;20657;-55
2022/06/11 12:19:43;;;;;;;2.03;1.37;;;;;;;;;;4973574;28;20212;-55
2022/06/11 12:22:22;;;;;;;3.33;1.50;;;;;;;;;;4973768;28;20201;-55
2022/06/11 12:24:51;;;;;;;4.23;2.20;;;;;;;;;;4973022;28;20304;-55
2022/06/11 12:27:27;;;;;;;4.93;1.93;;;;;;;;;;4973733;28;20214;-55
2022/06/11 12:29:55;;;;;;;3.37;1.67;;;;;;;;;;4973600;28;20236;-55
2022/06/11 12:32:22;;;;;;;3.77;1.83;;;;;;;;;;4973799;28;20212;-54
2022/06/11 12:34:49;;;;;;;6.00;1.63;;;;;;;;;;4973495;28;20276;-54
2022/06/11 12:37:21;;;;;;;5.63;2.13;;;;;;;;;;4973466;28;20232;-54
2022/06/11 12:39:52;;;;;;;3.57;1.60;;;;;;;;;;4973423;28;20215;-54
2022/06/11 12:42:21;;;;;;;3.77;2.00;;;;;;;;;;4973469;28;20279;-54
2022/06/11 12:44:50;;;;;;;7.20;1.70;;;;;;;;;;4973343;28;20193;-54
2022/06/11 12:47:24;;;;;;;3.50;1.53;;;;;;;;;;4972863;28;20203;-54
2022/06/11 12:49:54;;;;;;;3.53;1.87;;;;;;;;;;4972205;28;20305;-54
2022/06/11 12:52:25;;;;;;;4.13;2.10;;;;;;;;;;4971018;28;20252;-54
2022/06/11 12:55:03;;;;;;;6.33;1.80;;;;;;;;;;4972092;28;20272;-54
2022/06/11 12:57:38;;;;;;;5.10;1.77;;;;;;;;;;4972706;28;20677;-54
2022/06/11 13:00:09;;;;;;;3.13;1.80;;;;;;;;;;4972872;28;20201;-54
2022/06/11 13:02:40;;;;;;;3.97;1.90;;;;;;;;;;4972699;28;20205;-54
2022/06/11 13:05:15;;;;;;;7.50;2.00;;;;;;;;;;4972507;28;20553;-55
2022/06/11 13:07:48;;;;;;;4.63;1.80;;;;;;;;;;4972349;28;20800;-55
2022/06/11 13:10:19;;;;;;;4.37;2.00;;;;;;;;;;4972624;28;20203;-67
2022/06/11 13:12:52;;;;;;;6.13;2.03;;;;;;;;;;4972638;28;20283;-62
2022/06/11 13:15:25;;;;;;;3.23;1.43;;;;;;;;;;4972663;28;20262;-64
2022/06/11 13:17:57;;;;;;;3.13;1.73;;;;;;;;;;4972500;28;20197;-62
2022/06/11 13:20:29;;;;;;;4.20;1.80;;;;;;;;;;4972789;28;20213;-67
2022/06/11 13:22:59;;;;;;;4.33;1.77;;;;;;;;;;4972579;28;20202;-54
2022/06/11 13:25:32;;;;;;;3.37;1.80;;;;;;;;;;4972505;28;20585;-55
2022/06/11 13:28:03;;;;;;;5.80;2.00;;;;;;;;;;4972222;28;20201;-56
2022/06/11 13:30:36;;;;;;;5.17;1.80;;;;;;;;;;4972418;28;20209;-56
2022/06/11 13:33:07;;;;;;;4.23;1.83;;;;;;;;;;4972705;28;20611;-56
2022/06/11 13:35:40;;;;;;;4.67;2.00;;;;;;;;;;4972315;28;20288;-56
2022/06/11 13:38:18;;;;;;;5.70;1.97;;;;;;;;;;4972866;28;20202;-56
2022/06/11 13:40:46;;;;;;;4.23;2.13;;;;;;;;;;4972583;28;20210;-56
2022/06/11 13:43:23;;;;;;;8.77;2.30;;;;;;;;;;4972726;28;20568;-56
2022/06/11 13:45:53;;;;;;;4.00;1.77;;;;;;;;;;4972495;28;20705;-56
2022/06/11 13:48:24;;;;;;;3.67;1.60;;;;;;;;;;4972820;28;20209;-56
2022/06/11 13:51:00;;;;;;;4.73;2.60;;;;;;;;;;4972587;28;20293;-56
2022/06/11 13:56:34;;;;;;;4.80;1.83;;;;;;;;;;4949906;28;20241;-56
2022/06/11 13:59:22;;;;;;;4.13;1.70;;;;;;;;;;4972498;28;20206;-55
2022/06/11 14:01:56;;;;;;;5.50;2.10;;;;;;;;;;4972208;28;20210;-57
2022/06/11 14:04:28;;;;;;;3.30;1.97;;;;;;;;;;4972402;28;20255;-55
2022/06/11 14:06:55;;;;;;;5.97;2.10;;;;;;;;;;4971874;28;20216;-55
2022/06/11 14:12:33;;;;;;;2.83;1.60;;;;;;;;;;4970316;28;20259;-55
2022/06/11 14:15:12;;;;;;;4.23;1.70;;;;;;;;;;4969471;28;20238;-54
2022/06/11 14:17:40;;;;;;;3.50;1.87;;;;;;;;;;4971626;28;20238;-54
2022/06/11 14:20:18;;;;;;;3.97;1.97;;;;;;;;;;4971045;28;20206;-54
2022/06/11 14:22:46;;;;;;;5.23;1.93;;;;;;;;;;4971796;28;20225;-54
2022/06/11 14:25:27;;;;;;;3.53;1.77;;;;;;;;;;4972160;28;20204;-54
2022/06/11 14:27:54;;;;;;;6.00;2.10;;;;;;;;;;4971447;28;20655;-54
2022/06/11 14:30:25;;;;;;;2.83;1.80;;;;;;;;;;4971864;28;20237;-55
2022/06/11 14:33:03;;;;;;;3.90;2.10;;;;;;;;;;4971834;28;20292;-55
2022/06/11 14:35:34;;;;;;;4.10;1.93;;;;;;;;;;4968668;28;20225;-55
2022/06/11 14:38:16;;;;;;;3.73;1.80;;;;;;;;;;4971827;28;20204;-55
2022/06/11 14:40:43;;;;;;;5.17;1.60;;;;;;;;;;4971715;28;20202;-54
2022/06/11 14:43:12;;;;;;;3.70;1.90;;;;;;;;;;4971810;28;20200;-54
2022/06/11 14:45:49;;;;;;;4.63;2.00;;;;;;;;;;4972787;28;20213;-54
2022/06/11 14:48:21;;;;;;;3.97;2.00;;;;;;;;;;4975149;28;20658;-54
2022/06/11 14:50:52;;;;;;;2.77;1.77;;;;;;;;;;4975165;28;20236;-54
2022/06/11 14:53:30;;;;;;;3.93;1.70;;;;;;;;;;4975180;28;20200;-55
2022/06/11 14:56:01;;;;;;;2.73;1.73;;;;;;;;;;4974969;28;20649;-55
2022/06/11 14:58:42;;;;;;;3.50;1.90;;;;;;;;;;4975064;28;20203;-54
2022/06/11 15:01:18;;;;;;;4.53;1.70;;;;;;;;;;4975114;28;20212;-54